WetterOnline ( https://www.wetteronline.de )

Wetter aktuell Östringen

Aktuelles Wetter: Waibstadt (237m)

6-stündlich | Neueste Meldungen
Ortszeit Temperatur Wetter
Mi, 30.11. 7:00 5.3° C Regen
Mi, 30.11. 1:00 5.9° C leichter Regen
Di, 29.11. 19:00 7.0° C Nebel
Di, 29.11. 13:00 7.7° C Sprühregen
Di, 29.11. 7:00 5.6° C Nebel
Di, 29.11. 1:00 5.6° C leichter Regen
Mo, 28.11. 19:00 5.1° C leichter Regen
Mo, 28.11. 13:00 5.5° C Sprühregen
Ortszeit Temperatur Wetter
Mi, 30.11. 9:00 5.3° C bewölkt
Mi, 30.11. 8:50 5.3° C Dunst
Mi, 30.11. 8:40 5.2° C Dunst
Mi, 30.11. 8:30 5.1° C bewölkt
Mi, 30.11. 8:20 5.1° C bewölkt
Mi, 30.11. 8:10 5.1° C Dunst
Mi, 30.11. 8:00 5.0° C bewölkt
Mi, 30.11. 7:30 5.2° C bedeckt
Mi, 30.11. 7:00 5.3° C Regen
Mi, 30.11. 6:30 5.3° C bedeckt
Mi, 30.11. 6:00 5.4° C leichter Regen
Ortszeit Relative Feuchte Sichtweite
Mi, 30.11. 7:00 98% 2.4 km
Mi, 30.11. 1:00 99% 1.9 km
Di, 29.11. 19:00 98% 0.6 km
Di, 29.11. 13:00 93% 11 km
Di, 29.11. 7:00 99% 0.4 km
Di, 29.11. 1:00 99% 1.3 km
Mo, 28.11. 19:00 96% 4.2 km
Mo, 28.11. 13:00 85% 16 km
Ortszeit Relative Feuchte Sichtweite
Mi, 30.11. 9:00 98% 4.8 km
Mi, 30.11. 8:50 98% -
Mi, 30.11. 8:40 97% -
Mi, 30.11. 8:30 97% 8 km
Mi, 30.11. 8:20 97% -
Mi, 30.11. 8:10 96% -
Mi, 30.11. 8:00 97% 3.0 km
Mi, 30.11. 7:30 97% 2.8 km
Mi, 30.11. 7:00 98% 2.4 km
Mi, 30.11. 6:30 99% 1.3 km
Mi, 30.11. 6:00 98% 3.5 km
Ortszeit Niederschlagsmenge Niederschlagsart
Mi, 30.11. 7:00 1 l/m2 in 12 Std. Regen
Mi, 30.11. 1:00 0.1 l/m2 in 6 Std. Regen
Di, 29.11. 19:00 0.7 l/m2 in 12 Std. Regen
Di, 29.11. 13:00 0.6 l/m2 in 6 Std. Regen
Di, 29.11. 7:00 6 l/m2 in 12 Std. Regen
Di, 29.11. 1:00 5 l/m2 in 6 Std. Regen
Mo, 28.11. 19:00 0.7 l/m2 in 12 Std. Regen
Mo, 28.11. 13:00 0.1 l/m2 in 6 Std. Regen
Ortszeit Niederschlagsmenge Niederschlagsart
Mi, 30.11. 9:00 0.0 l/m2 in 1 Std. -
Mi, 30.11. 8:50 keine Meldung -
Mi, 30.11. 8:40 keine Meldung -
Mi, 30.11. 8:30 0.0 l/m2 in 1 Std. -
Mi, 30.11. 8:20 keine Meldung -
Mi, 30.11. 8:10 keine Meldung -
Mi, 30.11. 8:00 <0.05 l/m2 in 1 Std. Regen
Mi, 30.11. 7:30 <0.05 l/m2 in 1 Std. Schneeregen
Mi, 30.11. 7:00 <0.05 l/m2 in 1 Std. Regen
Mi, 30.11. 6:30 <0.05 l/m2 in 1 Std. Schneeregen
Mi, 30.11. 6:00 <0.05 l/m2 in 1 Std. Regen
Ortszeit Stärke Spitze Richtung
km/h Bft. km/h Grad Sektor
Mi, 30.11. 7:00 6 1 11 60° NO
Mi, 30.11. 1:00 0 0 11 - -
Di, 29.11. 19:00 4 1 7 130° SO
Di, 29.11. 13:00 2 1 4 330° NW
Di, 29.11. 7:00 2 1 4 240° SW
Di, 29.11. 1:00 0 0 11 - -
Mo, 28.11. 19:00 6 1 11 100° O
Mo, 28.11. 13:00 4 1 14 90° O
Ortszeit Stärke Spitze Richtung
km/h Bft. km/h Grad Sektor
Mi, 30.11. 9:00 4 1 14 90° O
Mi, 30.11. 8:50 4 1 - 90° O
Mi, 30.11. 8:40 6 1 - 80° O
Mi, 30.11. 8:30 4 1 14 60° NO
Mi, 30.11. 8:20 4 1 - 60° NO
Mi, 30.11. 8:10 7 2 - 70° O
Mi, 30.11. 8:00 7 2 11 100° O
Mi, 30.11. 7:30 7 2 11 110° O
Mi, 30.11. 7:00 6 1 9 60° NO
Mi, 30.11. 6:30 6 1 9 80° O
Mi, 30.11. 6:00 6 1 11 70° O
Ortszeit Untergrenze Bedeckung Gattung
total tief tief mittel hoch
Mi, 30.11. 7:00 870 m 8/8 8/8 - - -
Mi, 30.11. 1:00 60 m 7/8 7/8 - - -
Di, 29.11. 19:00 330 m 7/8 7/8 - - -
Di, 29.11. 13:00 120 m 6/8 6/8 - - -
Di, 29.11. 7:00 - 8/8 - - - -
Di, 29.11. 1:00 60 m 7/8 7/8 - - -
Mo, 28.11. 19:00 540 m 2/8 1/8 - - -
Mo, 28.11. 13:00 1470 m 3/8 3/8 - - -
Ortszeit Bedeckungsgrad in Achtel und Wolkenuntergrenze
Mi, 30.11. 9:00 6(330m) 7(1080m)
Mi, 30.11. 8:50 6(330m) 7(1080m)
Mi, 30.11. 8:40 6
Mi, 30.11. 8:30 4(1050m) 7(2100m) 7(2400m)
Mi, 30.11. 8:20 4(1050m) 7(2100m) 7(2400m)
Mi, 30.11. 8:10 7
Mi, 30.11. 8:00 2(1080m) 7(2100m) 7(3000m)
Mi, 30.11. 7:30 8(1020m)
Mi, 30.11. 7:00 8(870m)
Mi, 30.11. 6:30 1(450m) 8(810m)
Mi, 30.11. 6:00 4(420m) 6(570m) 7(810m)
Ortszeit Luftdruck NN (hPa) Tendenz (hPa in 3 Std.)
Mi, 30.11. 7:00 1022 + 0,4
Mi, 30.11. 1:00 1021 + 0,1
Di, 29.11. 19:00 1020 + 1,2
Di, 29.11. 13:00 1018 + 0,6
Di, 29.11. 7:00 1016 + 1,1
Di, 29.11. 1:00 1015 + 0,1
Mo, 28.11. 19:00 1014 + 0,4
Mo, 28.11. 13:00 1014 - 0,5
Ortszeit Luftdruck NN (hPa) Tendenz (hPa in 3 Std.)
Mi, 30.11. 9:00 1022 + 0,5
Mi, 30.11. 8:50 1022 keine Meldung
Mi, 30.11. 8:40 1022 keine Meldung
Mi, 30.11. 8:30 1022 + 0,3
Mi, 30.11. 8:20 1022 keine Meldung
Mi, 30.11. 8:10 1022 keine Meldung
Mi, 30.11. 8:00 1022 + 0,3
Mi, 30.11. 7:30 1022 + 0,4
Mi, 30.11. 7:00 1022 + 0,4
Mi, 30.11. 6:30 1022 + 0,2
Mi, 30.11. 6:00 1022 + 0,4
Ortszeit Schneehöhe (cm)
Mi, 30.11. 7:00 0
Mi, 30.11. 1:00 0
Di, 29.11. 19:00 0
Di, 29.11. 13:00 0
Di, 29.11. 7:00 0
Di, 29.11. 1:00 0
Mo, 28.11. 19:00 0
Mo, 28.11. 13:00 0
Ortszeit Schneehöhe (cm)
Mi, 30.11. 9:00 0
Mi, 30.11. 8:50 0
Mi, 30.11. 8:40 0
Mi, 30.11. 8:30 0
Mi, 30.11. 8:20 0
Mi, 30.11. 8:10 0
Mi, 30.11. 8:00 0
Mi, 30.11. 7:30 0
Mi, 30.11. 7:00 0
Mi, 30.11. 6:30 0
Mi, 30.11. 6:00 0
Link zu dieser Seite / Seite empfehlen

Das Wetter in ...